sensor_id;sensor_type;location;lat;lon;timestamp;pressure;altitude;pressure_sealevel;temperature
58307;BMP280;44116;50.884;4.768;2022-08-20T00:01:23;101280.0;;;18.3
58307;BMP280;44116;50.884;4.768;2022-08-20T00:03:23;101290.0;;;18.3
58307;BMP280;44116;50.884;4.768;2022-08-20T00:07:22;101280.0;;;18.4
58307;BMP280;44116;50.884;4.768;2022-08-20T00:11:23;101270.0;;;18.3
58307;BMP280;44116;50.884;4.768;2022-08-20T00:15:25;101270.0;;;18.4
58307;BMP280;44116;50.884;4.768;2022-08-20T00:17:22;101270.0;;;18.5
58307;BMP280;44116;50.884;4.768;2022-08-20T00:21:22;101280.0;;;18.4
58307;BMP280;44116;50.884;4.768;2022-08-20T00:23:22;101280.0;;;18.3
58307;BMP280;44116;50.884;4.768;2022-08-20T00:25:22;101280.0;;;18.2
58307;BMP280;44116;50.884;4.768;2022-08-20T00:27:21;101280.0;;;18.3
58307;BMP280;44116;50.884;4.768;2022-08-20T00:29:21;101280.0;;;18.2
58307;BMP280;44116;50.884;4.768;2022-08-20T00:31:22;101280.0;;;17.9
58307;BMP280;44116;50.884;4.768;2022-08-20T00:33:22;101290.0;;;18.0
58307;BMP280;44116;50.884;4.768;2022-08-20T00:35:22;101290.0;;;17.9
58307;BMP280;44116;50.884;4.768;2022-08-20T00:37:21;101290.0;;;17.9
58307;BMP280;44116;50.884;4.768;2022-08-20T00:39:21;101290.0;;;17.9
58307;BMP280;44116;50.884;4.768;2022-08-20T00:41:22;101290.0;;;17.9
58307;BMP280;44116;50.884;4.768;2022-08-20T00:43:23;101290.0;;;17.9
58307;BMP280;44116;50.884;4.768;2022-08-20T00:45:21;101290.0;;;17.8
58307;BMP280;44116;50.884;4.768;2022-08-20T00:49:22;101290.0;;;17.5
58307;BMP280;44116;50.884;4.768;2022-08-20T00:51:23;101290.0;;;17.5
58307;BMP280;44116;50.884;4.768;2022-08-20T00:53:21;101290.0;;;17.5
58307;BMP280;44116;50.884;4.768;2022-08-20T00:57:21;101290.0;;;17.6
58307;BMP280;44116;50.884;4.768;2022-08-20T00:59:22;101290.0;;;17.4
58307;BMP280;44116;50.884;4.768;2022-08-20T01:01:20;101290.0;;;17.5
58307;BMP280;44116;50.884;4.768;2022-08-20T01:03:20;101290.0;;;17.6
58307;BMP280;44116;50.884;4.768;2022-08-20T01:05:20;101290.0;;;17.5
58307;BMP280;44116;50.884;4.768;2022-08-20T01:07:20;101280.0;;;17.4
58307;BMP280;44116;50.884;4.768;2022-08-20T01:09:20;101280.0;;;17.5
58307;BMP280;44116;50.884;4.768;2022-08-20T01:11:20;101270.0;;;17.2
58307;BMP280;44116;50.884;4.768;2022-08-20T01:15:20;101270.0;;;17.3
58307;BMP280;44116;50.884;4.768;2022-08-20T01:19:20;101270.0;;;17.2
58307;BMP280;44116;50.884;4.768;2022-08-20T01:21:19;101280.0;;;17.2
58307;BMP280;44116;50.884;4.768;2022-08-20T01:23:20;101270.0;;;17.2
58307;BMP280;44116;50.884;4.768;2022-08-20T01:25:21;101270.0;;;17.2
58307;BMP280;44116;50.884;4.768;2022-08-20T01:27:19;101280.0;;;17.4
58307;BMP280;44116;50.884;4.768;2022-08-20T01:29:21;101270.0;;;17.1
58307;BMP280;44116;50.884;4.768;2022-08-20T01:31:20;101280.0;;;17.1
58307;BMP280;44116;50.884;4.768;2022-08-20T01:33:19;101280.0;;;17.1
58307;BMP280;44116;50.884;4.768;2022-08-20T01:35:19;101280.0;;;17.0
58307;BMP280;44116;50.884;4.768;2022-08-20T01:39:20;101290.0;;;17.2
58307;BMP280;44116;50.884;4.768;2022-08-20T01:41:21;101280.0;;;17.1
58307;BMP280;44116;50.884;4.768;2022-08-20T01:43:18;101270.0;;;17.1
58307;BMP280;44116;50.884;4.768;2022-08-20T01:45:18;101270.0;;;17.1
58307;BMP280;44116;50.884;4.768;2022-08-20T01:47:19;101270.0;;;16.9
58307;BMP280;44116;50.884;4.768;2022-08-20T01:49:19;101270.0;;;16.8
58307;BMP280;44116;50.884;4.768;2022-08-20T01:51:19;101270.0;;;16.8
58307;BMP280;44116;50.884;4.768;2022-08-20T01:53:20;101270.0;;;16.7
58307;BMP280;44116;50.884;4.768;2022-08-20T01:57:18;101270.0;;;16.6
58307;BMP280;44116;50.884;4.768;2022-08-20T02:01:18;101280.0;;;16.6
58307;BMP280;44116;50.884;4.768;2022-08-20T02:05:18;101270.0;;;16.5
58307;BMP280;44116;50.884;4.768;2022-08-20T02:07:18;101270.0;;;16.4
58307;BMP280;44116;50.884;4.768;2022-08-20T02:09:17;101270.0;;;16.3
58307;BMP280;44116;50.884;4.768;2022-08-20T02:11:17;101270.0;;;16.1
58307;BMP280;44116;50.884;4.768;2022-08-20T02:13:16;101270.0;;;16.3
58307;BMP280;44116;50.884;4.768;2022-08-20T02:15:16;101280.0;;;16.3
58307;BMP280;44116;50.884;4.768;2022-08-20T02:17:17;101270.0;;;16.1
58307;BMP280;44116;50.884;4.768;2022-08-20T02:21:16;101270.0;;;16.0
58307;BMP280;44116;50.884;4.768;2022-08-20T02:23:16;101280.0;;;16.0
58307;BMP280;44116;50.884;4.768;2022-08-20T02:25:16;101270.0;;;16.0
58307;BMP280;44116;50.884;4.768;2022-08-20T02:27:16;101270.0;;;15.9
58307;BMP280;44116;50.884;4.768;2022-08-20T02:29:16;101270.0;;;15.8
58307;BMP280;44116;50.884;4.768;2022-08-20T02:31:15;101270.0;;;15.9
58307;BMP280;44116;50.884;4.768;2022-08-20T02:33:17;101270.0;;;15.8
58307;BMP280;44116;50.884;4.768;2022-08-20T02:35:15;101270.0;;;15.6
58307;BMP280;44116;50.884;4.768;2022-08-20T02:37:15;101270.0;;;15.7
58307;BMP280;44116;50.884;4.768;2022-08-20T02:39:15;101270.0;;;15.6
58307;BMP280;44116;50.884;4.768;2022-08-20T02:41:15;101280.0;;;15.6
58307;BMP280;44116;50.884;4.768;2022-08-20T02:43:14;101280.0;;;15.8
58307;BMP280;44116;50.884;4.768;2022-08-20T02:45:15;101270.0;;;15.7
58307;BMP280;44116;50.884;4.768;2022-08-20T02:47:14;101280.0;;;15.6
58307;BMP280;44116;50.884;4.768;2022-08-20T02:51:14;101280.0;;;15.6
58307;BMP280;44116;50.884;4.768;2022-08-20T02:53:14;101280.0;;;15.6
58307;BMP280;44116;50.884;4.768;2022-08-20T02:55:14;101270.0;;;15.5
58307;BMP280;44116;50.884;4.768;2022-08-20T02:57:15;101280.0;;;15.4
58307;BMP280;44116;50.884;4.768;2022-08-20T02:59:13;101280.0;;;15.5
58307;BMP280;44116;50.884;4.768;2022-08-20T03:01:14;101280.0;;;15.4
58307;BMP280;44116;50.884;4.768;2022-08-20T03:03:13;101270.0;;;15.3
58307;BMP280;44116;50.884;4.768;2022-08-20T03:05:13;101270.0;;;15.3
58307;BMP280;44116;50.884;4.768;2022-08-20T03:07:13;101290.0;;;15.3
58307;BMP280;44116;50.884;4.768;2022-08-20T03:09:12;101280.0;;;15.3
58307;BMP280;44116;50.884;4.768;2022-08-20T03:11:12;101280.0;;;15.1
58307;BMP280;44116;50.884;4.768;2022-08-20T03:13:13;101290.0;;;15.2
58307;BMP280;44116;50.884;4.768;2022-08-20T03:15:12;101290.0;;;15.3
58307;BMP280;44116;50.884;4.768;2022-08-20T03:17:12;101280.0;;;15.4
58307;BMP280;44116;50.884;4.768;2022-08-20T03:19:12;101280.0;;;15.3
58307;BMP280;44116;50.884;4.768;2022-08-20T03:21:12;101280.0;;;15.4
58307;BMP280;44116;50.884;4.768;2022-08-20T03:23:12;101280.0;;;15.4
58307;BMP280;44116;50.884;4.768;2022-08-20T03:25:11;101280.0;;;15.5
58307;BMP280;44116;50.884;4.768;2022-08-20T03:27:11;101270.0;;;15.4
58307;BMP280;44116;50.884;4.768;2022-08-20T03:29:11;101270.0;;;15.4
58307;BMP280;44116;50.884;4.768;2022-08-20T03:31:11;101280.0;;;15.2
58307;BMP280;44116;50.884;4.768;2022-08-20T03:33:11;101280.0;;;15.3
58307;BMP280;44116;50.884;4.768;2022-08-20T03:35:12;101290.0;;;15.4
58307;BMP280;44116;50.884;4.768;2022-08-20T03:37:11;101290.0;;;15.3
58307;BMP280;44116;50.884;4.768;2022-08-20T03:41:10;101300.0;;;15.4
58307;BMP280;44116;50.884;4.768;2022-08-20T03:43:10;101300.0;;;15.4
58307;BMP280;44116;50.884;4.768;2022-08-20T03:45:10;101300.0;;;15.5
58307;BMP280;44116;50.884;4.768;2022-08-20T03:47:10;101300.0;;;15.4
58307;BMP280;44116;50.884;4.768;2022-08-20T03:49:10;101300.0;;;15.4
58307;BMP280;44116;50.884;4.768;2022-08-20T03:51:10;101300.0;;;15.4
58307;BMP280;44116;50.884;4.768;2022-08-20T03:53:10;101300.0;;;15.3
58307;BMP280;44116;50.884;4.768;2022-08-20T03:55:09;101310.0;;;15.3
58307;BMP280;44116;50.884;4.768;2022-08-20T03:57:11;101310.0;;;15.5
58307;BMP280;44116;50.884;4.768;2022-08-20T03:59:09;101310.0;;;15.6
58307;BMP280;44116;50.884;4.768;2022-08-20T04:01:09;101310.0;;;15.4
58307;BMP280;44116;50.884;4.768;2022-08-20T04:03:09;101300.0;;;15.4
58307;BMP280;44116;50.884;4.768;2022-08-20T04:05:09;101300.0;;;15.4
58307;BMP280;44116;50.884;4.768;2022-08-20T04:07:09;101310.0;;;15.5
58307;BMP280;44116;50.884;4.768;2022-08-20T04:09:08;101310.0;;;15.2
58307;BMP280;44116;50.884;4.768;2022-08-20T04:15:09;101310.0;;;15.6
58307;BMP280;44116;50.884;4.768;2022-08-20T04:17:09;101310.0;;;15.5
58307;BMP280;44116;50.884;4.768;2022-08-20T04:19:08;101310.0;;;15.6
58307;BMP280;44116;50.884;4.768;2022-08-20T04:21:08;101320.0;;;15.5
58307;BMP280;44116;50.884;4.768;2022-08-20T04:23:08;101310.0;;;15.6
58307;BMP280;44116;50.884;4.768;2022-08-20T04:27:08;101320.0;;;15.6
58307;BMP280;44116;50.884;4.768;2022-08-20T04:29:07;101320.0;;;15.4
58307;BMP280;44116;50.884;4.768;2022-08-20T04:31:07;101310.0;;;15.4
58307;BMP280;44116;50.884;4.768;2022-08-20T04:33:07;101320.0;;;15.5
58307;BMP280;44116;50.884;4.768;2022-08-20T04:35:08;101310.0;;;15.5
58307;BMP280;44116;50.884;4.768;2022-08-20T04:37:06;101310.0;;;15.3
58307;BMP280;44116;50.884;4.768;2022-08-20T04:41:06;101310.0;;;15.2
58307;BMP280;44116;50.884;4.768;2022-08-20T04:43:06;101310.0;;;15.4
58307;BMP280;44116;50.884;4.768;2022-08-20T04:47:06;101320.0;;;15.2
58307;BMP280;44116;50.884;4.768;2022-08-20T04:49:06;101320.0;;;15.2
58307;BMP280;44116;50.884;4.768;2022-08-20T04:51:06;101320.0;;;15.2
58307;BMP280;44116;50.884;4.768;2022-08-20T04:53:06;101320.0;;;15.1
58307;BMP280;44116;50.884;4.768;2022-08-20T04:55:06;101330.0;;;15.2
58307;BMP280;44116;50.884;4.768;2022-08-20T04:57:05;101330.0;;;15.3
58307;BMP280;44116;50.884;4.768;2022-08-20T05:01:05;101340.0;;;15.3
58307;BMP280;44116;50.884;4.768;2022-08-20T05:03:05;101340.0;;;15.3
58307;BMP280;44116;50.884;4.768;2022-08-20T05:05:05;101340.0;;;15.4
58307;BMP280;44116;50.884;4.768;2022-08-20T05:07:04;101340.0;;;15.6
58307;BMP280;44116;50.884;4.768;2022-08-20T05:09:04;101350.0;;;15.4
58307;BMP280;44116;50.884;4.768;2022-08-20T05:11:04;101340.0;;;15.3
58307;BMP280;44116;50.884;4.768;2022-08-20T05:13:04;101340.0;;;15.3
58307;BMP280;44116;50.884;4.768;2022-08-20T05:15:04;101340.0;;;15.5
58307;BMP280;44116;50.884;4.768;2022-08-20T05:17:04;101340.0;;;15.5
58307;BMP280;44116;50.884;4.768;2022-08-20T05:19:03;101340.0;;;15.6
58307;BMP280;44116;50.884;4.768;2022-08-20T05:21:03;101340.0;;;15.7
58307;BMP280;44116;50.884;4.768;2022-08-20T05:23:03;101350.0;;;15.6
58307;BMP280;44116;50.884;4.768;2022-08-20T05:25:04;101360.0;;;15.8
58307;BMP280;44116;50.884;4.768;2022-08-20T05:27:03;101360.0;;;15.8
58307;BMP280;44116;50.884;4.768;2022-08-20T05:29:03;101370.0;;;15.9
58307;BMP280;44116;50.884;4.768;2022-08-20T05:31:03;101370.0;;;15.9
58307;BMP280;44116;50.884;4.768;2022-08-20T05:33:03;101380.0;;;15.9
58307;BMP280;44116;50.884;4.768;2022-08-20T05:35:03;101380.0;;;15.7
58307;BMP280;44116;50.884;4.768;2022-08-20T05:37:02;101380.0;;;15.8
58307;BMP280;44116;50.884;4.768;2022-08-20T05:39:02;101380.0;;;15.6
58307;BMP280;44116;50.884;4.768;2022-08-20T05:41:02;101380.0;;;15.7
58307;BMP280;44116;50.884;4.768;2022-08-20T05:43:02;101380.0;;;15.7
58307;BMP280;44116;50.884;4.768;2022-08-20T05:45:02;101380.0;;;15.8
58307;BMP280;44116;50.884;4.768;2022-08-20T05:49:01;101380.0;;;15.9
58307;BMP280;44116;50.884;4.768;2022-08-20T05:51:01;101390.0;;;15.9
58307;BMP280;44116;50.884;4.768;2022-08-20T05:53:01;101390.0;;;16.0
58307;BMP280;44116;50.884;4.768;2022-08-20T05:55:01;101390.0;;;15.9
58307;BMP280;44116;50.884;4.768;2022-08-20T05:57:01;101390.0;;;16.0
58307;BMP280;44116;50.884;4.768;2022-08-20T05:59:01;101390.0;;;16.1
58307;BMP280;44116;50.884;4.768;2022-08-20T06:01:00;101390.0;;;16.1
58307;BMP280;44116;50.884;4.768;2022-08-20T06:03:00;101400.0;;;16.2
58307;BMP280;44116;50.884;4.768;2022-08-20T06:05:00;101390.0;;;16.2
58307;BMP280;44116;50.884;4.768;2022-08-20T06:07:01;101390.0;;;16.0
58307;BMP280;44116;50.884;4.768;2022-08-20T06:09:00;101390.0;;;16.3
58307;BMP280;44116;50.884;4.768;2022-08-20T06:11:00;101390.0;;;16.2
58307;BMP280;44116;50.884;4.768;2022-08-20T06:13:00;101390.0;;;16.1
58307;BMP280;44116;50.884;4.768;2022-08-20T06:14:59;101390.0;;;16.1
58307;BMP280;44116;50.884;4.768;2022-08-20T06:17:01;101390.0;;;16.2
58307;BMP280;44116;50.884;4.768;2022-08-20T06:18:59;101390.0;;;16.3
58307;BMP280;44116;50.884;4.768;2022-08-20T06:20:59;101380.0;;;16.2
58307;BMP280;44116;50.884;4.768;2022-08-20T06:22:59;101390.0;;;16.3
58307;BMP280;44116;50.884;4.768;2022-08-20T06:24:59;101380.0;;;16.4
58307;BMP280;44116;50.884;4.768;2022-08-20T06:27:00;101380.0;;;16.5
58307;BMP280;44116;50.884;4.768;2022-08-20T06:28:59;101380.0;;;16.5
58307;BMP280;44116;50.884;4.768;2022-08-20T06:30:58;101380.0;;;16.4
58307;BMP280;44116;50.884;4.768;2022-08-20T06:32:58;101380.0;;;16.5
58307;BMP280;44116;50.884;4.768;2022-08-20T06:34:58;101380.0;;;16.7
58307;BMP280;44116;50.884;4.768;2022-08-20T06:36:58;101380.0;;;16.3
58307;BMP280;44116;50.884;4.768;2022-08-20T06:38:58;101380.0;;;16.4
58307;BMP280;44116;50.884;4.768;2022-08-20T06:40:58;101380.0;;;16.4
58307;BMP280;44116;50.884;4.768;2022-08-20T06:42:58;101380.0;;;16.5
58307;BMP280;44116;50.884;4.768;2022-08-20T06:44:57;101390.0;;;16.7
58307;BMP280;44116;50.884;4.768;2022-08-20T06:46:59;101380.0;;;16.4
58307;BMP280;44116;50.884;4.768;2022-08-20T06:50:57;101390.0;;;16.7
58307;BMP280;44116;50.884;4.768;2022-08-20T06:52:57;101380.0;;;16.8
58307;BMP280;44116;50.884;4.768;2022-08-20T06:54:57;101380.0;;;16.7
58307;BMP280;44116;50.884;4.768;2022-08-20T06:56:57;101380.0;;;16.9
58307;BMP280;44116;50.884;4.768;2022-08-20T06:58:57;101380.0;;;17.0
58307;BMP280;44116;50.884;4.768;2022-08-20T07:00:57;101390.0;;;16.8
58307;BMP280;44116;50.884;4.768;2022-08-20T07:02:56;101390.0;;;16.7
58307;BMP280;44116;50.884;4.768;2022-08-20T07:06:56;101400.0;;;16.9
58307;BMP280;44116;50.884;4.768;2022-08-20T07:08:56;101400.0;;;16.6
58307;BMP280;44116;50.884;4.768;2022-08-20T07:10:56;101400.0;;;17.1
58307;BMP280;44116;50.884;4.768;2022-08-20T07:12:56;101410.0;;;16.9
58307;BMP280;44116;50.884;4.768;2022-08-20T07:14:56;101410.0;;;16.7
58307;BMP280;44116;50.884;4.768;2022-08-20T07:16:56;101400.0;;;16.8
58307;BMP280;44116;50.884;4.768;2022-08-20T07:18:56;101400.0;;;17.1
58307;BMP280;44116;50.884;4.768;2022-08-20T07:22:55;101410.0;;;17.3
58307;BMP280;44116;50.884;4.768;2022-08-20T07:24:55;101410.0;;;17.1
58307;BMP280;44116;50.884;4.768;2022-08-20T07:26:55;101410.0;;;17.4
58307;BMP280;44116;50.884;4.768;2022-08-20T07:28:55;101410.0;;;17.3
58307;BMP280;44116;50.884;4.768;2022-08-20T07:30:55;101420.0;;;17.3
58307;BMP280;44116;50.884;4.768;2022-08-20T07:32:55;101420.0;;;17.2
58307;BMP280;44116;50.884;4.768;2022-08-20T07:34:55;101420.0;;;17.2
58307;BMP280;44116;50.884;4.768;2022-08-20T07:36:57;101430.0;;;17.2
58307;BMP280;44116;50.884;4.768;2022-08-20T07:38:55;101430.0;;;17.4
58307;BMP280;44116;50.884;4.768;2022-08-20T07:42:55;101450.0;;;17.6
58307;BMP280;44116;50.884;4.768;2022-08-20T07:44:54;101440.0;;;17.4
58307;BMP280;44116;50.884;4.768;2022-08-20T07:46:54;101440.0;;;17.7
58307;BMP280;44116;50.884;4.768;2022-08-20T07:48:54;101440.0;;;17.7
58307;BMP280;44116;50.884;4.768;2022-08-20T07:50:54;101440.0;;;18.0
58307;BMP280;44116;50.884;4.768;2022-08-20T07:52:54;101440.0;;;18.3
58307;BMP280;44116;50.884;4.768;2022-08-20T07:54:54;101430.0;;;18.1
58307;BMP280;44116;50.884;4.768;2022-08-20T07:56:54;101430.0;;;18.1
58307;BMP280;44116;50.884;4.768;2022-08-20T07:58:54;101430.0;;;18.5
58307;BMP280;44116;50.884;4.768;2022-08-20T08:02:54;101430.0;;;18.4
58307;BMP280;44116;50.884;4.768;2022-08-20T08:04:54;101430.0;;;18.1
58307;BMP280;44116;50.884;4.768;2022-08-20T08:06:54;101440.0;;;18.6
58307;BMP280;44116;50.884;4.768;2022-08-20T08:08:54;101440.0;;;18.6
58307;BMP280;44116;50.884;4.768;2022-08-20T08:10:54;101440.0;;;18.7
58307;BMP280;44116;50.884;4.768;2022-08-20T08:12:54;101440.0;;;19.0
58307;BMP280;44116;50.884;4.768;2022-08-20T08:14:53;101440.0;;;19.2
58307;BMP280;44116;50.884;4.768;2022-08-20T08:16:54;101430.0;;;19.2
58307;BMP280;44116;50.884;4.768;2022-08-20T08:18:53;101430.0;;;18.9
58307;BMP280;44116;50.884;4.768;2022-08-20T08:20:53;101420.0;;;19.3
58307;BMP280;44116;50.884;4.768;2022-08-20T08:22:53;101430.0;;;19.5
58307;BMP280;44116;50.884;4.768;2022-08-20T08:24:53;101430.0;;;19.9
58307;BMP280;44116;50.884;4.768;2022-08-20T08:26:53;101420.0;;;19.7
58307;BMP280;44116;50.884;4.768;2022-08-20T08:28:53;101420.0;;;19.5
58307;BMP280;44116;50.884;4.768;2022-08-20T08:30:53;101420.0;;;19.5
58307;BMP280;44116;50.884;4.768;2022-08-20T08:32:53;101420.0;;;19.2
58307;BMP280;44116;50.884;4.768;2022-08-20T08:34:53;101430.0;;;19.8
58307;BMP280;44116;50.884;4.768;2022-08-20T08:36:53;101420.0;;;19.8
58307;BMP280;44116;50.884;4.768;2022-08-20T08:38:53;101420.0;;;19.7
58307;BMP280;44116;50.884;4.768;2022-08-20T08:40:53;101420.0;;;20.4
58307;BMP280;44116;50.884;4.768;2022-08-20T08:42:53;101420.0;;;20.4
58307;BMP280;44116;50.884;4.768;2022-08-20T08:44:53;101420.0;;;20.4
58307;BMP280;44116;50.884;4.768;2022-08-20T08:46:53;101420.0;;;20.4
58307;BMP280;44116;50.884;4.768;2022-08-20T08:50:53;101420.0;;;20.3
58307;BMP280;44116;50.884;4.768;2022-08-20T08:52:53;101410.0;;;20.6
58307;BMP280;44116;50.884;4.768;2022-08-20T08:54:53;101410.0;;;20.7
58307;BMP280;44116;50.884;4.768;2022-08-20T08:56:53;101410.0;;;20.8
58307;BMP280;44116;50.884;4.768;2022-08-20T08:58:53;101400.0;;;20.6
58307;BMP280;44116;50.884;4.768;2022-08-20T09:00:53;101410.0;;;21.0
58307;BMP280;44116;50.884;4.768;2022-08-20T09:02:53;101380.0;;;20.4
58307;BMP280;44116;50.884;4.768;2022-08-20T09:04:53;101380.0;;;20.4
58307;BMP280;44116;50.884;4.768;2022-08-20T09:06:53;101380.0;;;20.4
58307;BMP280;44116;50.884;4.768;2022-08-20T09:08:53;101380.0;;;20.4
58307;BMP280;44116;50.884;4.768;2022-08-20T09:10:53;101380.0;;;20.4
58307;BMP280;44116;50.884;4.768;2022-08-20T09:12:53;101380.0;;;20.4
58307;BMP280;44116;50.884;4.768;2022-08-20T09:14:53;101380.0;;;20.4
58307;BMP280;44116;50.884;4.768;2022-08-20T09:16:53;101380.0;;;20.4
58307;BMP280;44116;50.884;4.768;2022-08-20T09:18:53;101380.0;;;20.4
58307;BMP280;44116;50.884;4.768;2022-08-20T09:20:53;101380.0;;;20.4
58307;BMP280;44116;50.884;4.768;2022-08-20T09:22:53;101380.0;;;20.4
58307;BMP280;44116;50.884;4.768;2022-08-20T09:24:53;101380.0;;;20.4
58307;BMP280;44116;50.884;4.768;2022-08-20T09:26:53;101380.0;;;20.4
58307;BMP280;44116;50.884;4.768;2022-08-20T09:28:53;101380.0;;;20.4
58307;BMP280;44116;50.884;4.768;2022-08-20T09:30:53;101380.0;;;20.4
58307;BMP280;44116;50.884;4.768;2022-08-20T09:32:53;101380.0;;;20.4
58307;BMP280;44116;50.884;4.768;2022-08-20T09:36:53;101380.0;;;20.4
58307;BMP280;44116;50.884;4.768;2022-08-20T09:38:53;101380.0;;;20.4
58307;BMP280;44116;50.884;4.768;2022-08-20T09:40:53;101380.0;;;20.4
58307;BMP280;44116;50.884;4.768;2022-08-20T09:42:53;101380.0;;;20.4
58307;BMP280;44116;50.884;4.768;2022-08-20T09:44:53;101380.0;;;20.4
58307;BMP280;44116;50.884;4.768;2022-08-20T09:46:53;101380.0;;;20.4
58307;BMP280;44116;50.884;4.768;2022-08-20T09:48:53;101380.0;;;20.4
58307;BMP280;44116;50.884;4.768;2022-08-20T09:50:53;101380.0;;;20.4
58307;BMP280;44116;50.884;4.768;2022-08-20T09:52:53;101380.0;;;20.4
58307;BMP280;44116;50.884;4.768;2022-08-20T09:54:55;101380.0;;;20.4
58307;BMP280;44116;50.884;4.768;2022-08-20T09:56:53;101380.0;;;20.4
58307;BMP280;44116;50.884;4.768;2022-08-20T09:58:53;101380.0;;;20.4
58307;BMP280;44116;50.884;4.768;2022-08-20T10:00:53;101380.0;;;20.4
58307;BMP280;44116;50.884;4.768;2022-08-20T10:02:53;101380.0;;;20.4
58307;BMP280;44116;50.884;4.768;2022-08-20T10:04:54;101380.0;;;20.4
58307;BMP280;44116;50.884;4.768;2022-08-20T10:06:53;101380.0;;;20.4
58307;BMP280;44116;50.884;4.768;2022-08-20T10:08:53;101380.0;;;20.4
58307;BMP280;44116;50.884;4.768;2022-08-20T10:10:53;101380.0;;;20.4
58307;BMP280;44116;50.884;4.768;2022-08-20T10:12:53;101380.0;;;20.4
58307;BMP280;44116;50.884;4.768;2022-08-20T10:14:53;101380.0;;;20.4
58307;BMP280;44116;50.884;4.768;2022-08-20T10:16:54;101380.0;;;20.4
58307;BMP280;44116;50.884;4.768;2022-08-20T10:18:55;101380.0;;;20.4
58307;BMP280;44116;50.884;4.768;2022-08-20T10:20:54;101380.0;;;20.4
58307;BMP280;44116;50.884;4.768;2022-08-20T10:22:53;101380.0;;;20.4
58307;BMP280;44116;50.884;4.768;2022-08-20T10:24:54;101380.0;;;20.4
58307;BMP280;44116;50.884;4.768;2022-08-20T10:26:54;101380.0;;;20.4
58307;BMP280;44116;50.884;4.768;2022-08-20T10:28:54;101380.0;;;20.4
58307;BMP280;44116;50.884;4.768;2022-08-20T10:30:54;101380.0;;;20.4
58307;BMP280;44116;50.884;4.768;2022-08-20T10:32:54;101380.0;;;20.4
58307;BMP280;44116;50.884;4.768;2022-08-20T10:36:54;101380.0;;;20.4
58307;BMP280;44116;50.884;4.768;2022-08-20T10:38:54;101380.0;;;20.4
58307;BMP280;44116;50.884;4.768;2022-08-20T10:40:54;101380.0;;;20.4
58307;BMP280;44116;50.884;4.768;2022-08-20T10:42:54;101380.0;;;20.4
58307;BMP280;44116;50.884;4.768;2022-08-20T10:44:54;101380.0;;;20.4
58307;BMP280;44116;50.884;4.768;2022-08-20T10:48:54;101380.0;;;20.4
58307;BMP280;44116;50.884;4.768;2022-08-20T10:50:54;101380.0;;;20.4
58307;BMP280;44116;50.884;4.768;2022-08-20T10:52:54;101380.0;;;20.4
58307;BMP280;44116;50.884;4.768;2022-08-20T10:56:54;101380.0;;;20.4
58307;BMP280;44116;50.884;4.768;2022-08-20T10:58:54;101380.0;;;20.4
58307;BMP280;44116;50.884;4.768;2022-08-20T11:00:54;101380.0;;;20.4
58307;BMP280;44116;50.884;4.768;2022-08-20T11:02:54;101380.0;;;20.4
58307;BMP280;44116;50.884;4.768;2022-08-20T11:04:54;101380.0;;;20.4
58307;BMP280;44116;50.884;4.768;2022-08-20T11:06:54;101380.0;;;20.4
58307;BMP280;44116;50.884;4.768;2022-08-20T11:08:55;101380.0;;;20.4
58307;BMP280;44116;50.884;4.768;2022-08-20T11:10:55;101380.0;;;20.4
58307;BMP280;44116;50.884;4.768;2022-08-20T11:12:55;101380.0;;;20.4
58307;BMP280;44116;50.884;4.768;2022-08-20T11:14:55;101380.0;;;20.4
58307;BMP280;44116;50.884;4.768;2022-08-20T11:16:55;101380.0;;;20.4
58307;BMP280;44116;50.884;4.768;2022-08-20T11:18:55;101380.0;;;20.4
58307;BMP280;44116;50.884;4.768;2022-08-20T11:20:55;101380.0;;;20.4
58307;BMP280;44116;50.884;4.768;2022-08-20T11:22:55;101380.0;;;20.4
58307;BMP280;44116;50.884;4.768;2022-08-20T11:26:55;101380.0;;;20.4
58307;BMP280;44116;50.884;4.768;2022-08-20T11:30:55;101380.0;;;20.4
58307;BMP280;44116;50.884;4.768;2022-08-20T11:32:56;101380.0;;;20.4
58307;BMP280;44116;50.884;4.768;2022-08-20T11:34:55;101380.0;;;20.4
58307;BMP280;44116;50.884;4.768;2022-08-20T11:36:56;101380.0;;;20.4
58307;BMP280;44116;50.884;4.768;2022-08-20T11:38:56;101380.0;;;20.4
58307;BMP280;44116;50.884;4.768;2022-08-20T11:40:56;101380.0;;;20.4
58307;BMP280;44116;50.884;4.768;2022-08-20T11:42:56;101380.0;;;20.4
58307;BMP280;44116;50.884;4.768;2022-08-20T11:44:56;101380.0;;;20.4
58307;BMP280;44116;50.884;4.768;2022-08-20T11:46:58;101380.0;;;20.4
58307;BMP280;44116;50.884;4.768;2022-08-20T11:48:56;101380.0;;;20.4
58307;BMP280;44116;50.884;4.768;2022-08-20T11:50:56;101380.0;;;20.4
58307;BMP280;44116;50.884;4.768;2022-08-20T11:52:56;101380.0;;;20.4
58307;BMP280;44116;50.884;4.768;2022-08-20T11:54:57;101380.0;;;20.4
58307;BMP280;44116;50.884;4.768;2022-08-20T11:56:57;101380.0;;;20.4
58307;BMP280;44116;50.884;4.768;2022-08-20T11:58:57;101380.0;;;20.4
58307;BMP280;44116;50.884;4.768;2022-08-20T12:00:56;101380.0;;;20.4
58307;BMP280;44116;50.884;4.768;2022-08-20T12:02:56;101380.0;;;20.4
58307;BMP280;44116;50.884;4.768;2022-08-20T12:04:56;101380.0;;;20.4
58307;BMP280;44116;50.884;4.768;2022-08-20T12:06:56;101380.0;;;20.4
58307;BMP280;44116;50.884;4.768;2022-08-20T12:08:57;101380.0;;;20.4
58307;BMP280;44116;50.884;4.768;2022-08-20T12:10:57;101380.0;;;20.4
58307;BMP280;44116;50.884;4.768;2022-08-20T12:12:57;101380.0;;;20.4
58307;BMP280;44116;50.884;4.768;2022-08-20T12:14:57;101380.0;;;20.4
58307;BMP280;44116;50.884;4.768;2022-08-20T12:16:57;101380.0;;;20.4
58307;BMP280;44116;50.884;4.768;2022-08-20T12:18:57;101380.0;;;20.4
58307;BMP280;44116;50.884;4.768;2022-08-20T12:20:57;101380.0;;;20.4
58307;BMP280;44116;50.884;4.768;2022-08-20T12:22:57;101380.0;;;20.4
58307;BMP280;44116;50.884;4.768;2022-08-20T12:24:57;101380.0;;;20.4
58307;BMP280;44116;50.884;4.768;2022-08-20T12:28:57;101380.0;;;20.4
58307;BMP280;44116;50.884;4.768;2022-08-20T12:32:58;101380.0;;;20.4
58307;BMP280;44116;50.884;4.768;2022-08-20T12:34:58;101380.0;;;20.4
58307;BMP280;44116;50.884;4.768;2022-08-20T12:38:58;101380.0;;;20.4
58307;BMP280;44116;50.884;4.768;2022-08-20T12:44:58;101380.0;;;20.4
58307;BMP280;44116;50.884;4.768;2022-08-20T12:48:58;101380.0;;;20.4
58307;BMP280;44116;50.884;4.768;2022-08-20T12:50:58;101380.0;;;20.4
58307;BMP280;44116;50.884;4.768;2022-08-20T12:52:58;101380.0;;;20.4
58307;BMP280;44116;50.884;4.768;2022-08-20T12:54:58;101380.0;;;20.4
58307;BMP280;44116;50.884;4.768;2022-08-20T12:56:58;101380.0;;;20.4
58307;BMP280;44116;50.884;4.768;2022-08-20T12:58:58;101380.0;;;20.4
58307;BMP280;44116;50.884;4.768;2022-08-20T13:00:58;101380.0;;;20.4